Terminal Aerodrome Forecast
Issued by NWS

Home | Current Version | Previous Version | Text Only | Print | Product List | Glossary On
Versions: 1 2 3 4 5 6 7 8 9 10 11 12 13 14 15 16 17 18
000
FTUS42 KMLB 192000 AAB
TAFSUA
TAF AMD
KSUA 192000Z 1920/2018 02011G19KT P6SM VCSH BKN030
      TEMPO 1919/1921 4SM SHRA BKN020
     FM192100 01014G20KT P6SM SCT030
     FM200200 04003KT P6SM SKC
     FM201200 35005KT P6SM SCT025
     FM201400 04007KT P6SM SCT030
     FM201700 07010KT P6SM SCT035=

USA.gov is the U.S. government's official web portal to all federal, state and local government web resources and services.